createdAt,value
2023-02-01T00:00:40.952Z,77.50
2023-02-01T00:03:09.710Z,76.10
2023-02-01T00:05:37.186Z,76.30
2023-02-01T00:08:04.873Z,75.80
2023-02-01T00:10:33.223Z,76.40
2023-02-01T00:13:00.949Z,77.80
2023-02-01T00:15:28.601Z,76.80
2023-02-01T00:17:57.273Z,77.10
2023-02-01T00:20:24.759Z,77.60
2023-02-01T00:22:52.302Z,77.00
2023-02-01T00:25:19.780Z,77.60
2023-02-01T00:27:50.396Z,75.80
2023-02-01T00:30:20.090Z,75.50
2023-02-01T00:32:47.768Z,75.60
2023-02-01T00:35:15.285Z,76.00
2023-02-01T00:37:44.534Z,76.20
2023-02-01T00:40:13.040Z,76.40
2023-02-01T00:42:41.358Z,76.60
2023-02-01T00:45:09.484Z,76.30
2023-02-01T00:47:37.877Z,77.60
2023-02-01T00:50:06.483Z,78.80
2023-02-01T00:52:34.237Z,77.20
2023-02-01T00:55:03.053Z,77.40
2023-02-01T00:57:32.130Z,77.40
2023-02-01T01:00:02.620Z,76.30
2023-02-01T01:02:30.551Z,75.50
2023-02-01T01:04:59.731Z,75.10
2023-02-01T01:07:28.724Z,75.00
2023-02-01T01:09:56.571Z,75.70
2023-02-01T01:12:24.576Z,74.80
2023-02-01T01:14:52.236Z,76.40
2023-02-01T01:17:20.599Z,77.60
2023-02-01T01:19:48.892Z,78.50
2023-02-01T01:22:18.372Z,79.90
2023-02-01T01:24:45.904Z,79.80
2023-02-01T01:27:14.609Z,78.80
2023-02-01T01:29:42.387Z,78.70
2023-02-01T01:32:09.921Z,77.30
2023-02-01T01:34:40.486Z,76.80
2023-02-01T01:37:10.526Z,75.40
2023-02-01T01:39:38.929Z,75.00
2023-02-01T01:42:06.543Z,75.40
2023-02-01T01:44:55.689Z,74.80
2023-02-01T01:47:25.599Z,74.60
2023-02-01T01:49:53.901Z,73.80
2023-02-01T01:52:21.708Z,73.30
2023-02-01T01:54:53.022Z,72.90
2023-02-01T01:57:41.389Z,72.10
2023-02-01T02:00:11.405Z,71.60
2023-02-01T02:02:40.221Z,71.60
2023-02-01T02:05:10.525Z,71.30
2023-02-01T02:07:41.878Z,71.70
2023-02-01T02:10:11.901Z,70.60
2023-02-01T02:12:43.804Z,70.00
2023-02-01T02:15:12.919Z,69.60
2023-02-01T02:17:40.390Z,69.10
2023-02-01T02:20:27.159Z,68.90
2023-02-01T02:23:18.551Z,67.90
2023-02-01T02:25:57.935Z,67.40
2023-02-01T02:28:38.662Z,67.30
2023-02-01T02:31:10.003Z,66.70
2023-02-01T02:33:56.862Z,66.70
2023-02-01T02:36:43.326Z,66.10
2023-02-01T02:39:53.214Z,66.00
2023-02-01T02:42:39.286Z,64.90
2023-02-01T02:45:34.692Z,65.10
2023-02-01T02:51:29.475Z,65.10
2023-02-01T02:54:22.622Z,65.20
2023-02-01T02:57:10.109Z,65.00
2023-02-01T03:00:00.861Z,65.00
2023-02-01T03:02:47.217Z,64.80
2023-02-01T03:08:02.744Z,64.30
2023-02-01T03:10:46.011Z,64.20
2023-02-01T03:13:17.265Z,64.10
2023-02-01T03:16:08.133Z,63.90
2023-02-01T03:18:48.629Z,63.60
2023-02-01T03:21:37.160Z,63.40
2023-02-01T03:24:09.047Z,63.40
2023-02-01T03:26:40.027Z,62.80
2023-02-01T03:29:11.906Z,62.40
2023-02-01T03:34:18.930Z,62.90
2023-02-01T03:36:50.402Z,62.50
2023-02-01T03:39:24.879Z,61.70
2023-02-01T03:41:57.915Z,61.40
2023-02-01T03:44:28.523Z,61.50
2023-02-01T03:47:35.555Z,61.10
2023-02-01T03:50:12.348Z,60.50
2023-02-01T03:52:50.626Z,60.50
2023-02-01T03:55:21.686Z,60.80
2023-02-01T03:57:54.767Z,59.70
2023-02-01T04:00:38.970Z,60.30
2023-02-01T04:03:17.314Z,59.40
2023-02-01T04:06:14.248Z,58.80
2023-02-01T04:08:44.147Z,59.10
2023-02-01T04:11:28.147Z,58.40
2023-02-01T04:14:11.680Z,59.00
2023-02-01T04:16:50.346Z,59.10
2023-02-01T04:19:18.657Z,59.00
2023-02-01T04:21:46.831Z,58.80
2023-02-01T04:24:15.712Z,58.30
2023-02-01T04:26:44.498Z,57.70
2023-02-01T04:29:12.532Z,56.80
2023-02-01T04:31:40.292Z,57.50
2023-02-01T04:34:08.390Z,57.20
2023-02-01T04:36:39.895Z,57.10
2023-02-01T04:39:07.928Z,56.10
2023-02-01T04:41:35.816Z,56.60
2023-02-01T04:44:04.495Z,56.10
2023-02-01T04:46:32.838Z,54.50
2023-02-01T04:49:04.383Z,54.20
2023-02-01T04:51:38.094Z,55.60
2023-02-01T04:54:07.538Z,54.00
2023-02-01T04:56:38.484Z,53.80
2023-02-01T04:59:07.524Z,54.60
2023-02-01T05:01:35.374Z,53.50
2023-02-01T05:04:03.050Z,54.10
2023-02-01T05:06:35.753Z,53.40
2023-02-01T05:09:03.777Z,54.30
2023-02-01T05:11:50.467Z,53.30
2023-02-01T05:14:19.177Z,56.40
2023-02-01T05:16:46.863Z,55.70
2023-02-01T05:19:14.800Z,55.50
2023-02-01T05:21:43.915Z,54.90
2023-02-01T05:24:20.967Z,53.70
2023-02-01T05:26:54.274Z,53.50
2023-02-01T05:29:22.112Z,54.80
2023-02-01T05:31:50.253Z,53.60
2023-02-01T05:34:18.520Z,52.20
2023-02-01T05:36:47.093Z,54.30
2023-02-01T05:39:14.719Z,52.20
2023-02-01T05:41:45.965Z,52.70
2023-02-01T05:44:14.154Z,51.90
2023-02-01T05:46:42.621Z,51.50
2023-02-01T05:49:19.734Z,51.40
2023-02-01T05:51:49.260Z,50.90
2023-02-01T05:54:16.920Z,51.40
2023-02-01T05:56:44.485Z,49.20
2023-02-01T05:59:12.206Z,51.10
2023-02-01T06:01:40.682Z,51.10
2023-02-01T06:04:08.843Z,51.60
2023-02-01T06:06:38.224Z,51.70
2023-02-01T06:09:06.162Z,51.70
2023-02-01T06:11:34.188Z,52.00
2023-02-01T06:14:01.994Z,52.60
2023-02-01T06:16:29.956Z,51.90
2023-02-01T06:18:57.994Z,53.40
2023-02-01T06:21:30.613Z,51.70
2023-02-01T06:23:59.105Z,51.30
2023-02-01T06:26:30.261Z,49.90
2023-02-01T06:28:58.181Z,51.90
2023-02-01T06:31:27.035Z,50.00
2023-02-01T06:33:55.739Z,50.40
2023-02-01T06:36:23.878Z,53.30
2023-02-01T06:38:51.444Z,51.60
2023-02-01T06:41:19.256Z,47.60
2023-02-01T06:43:48.300Z,49.80
2023-02-01T06:46:16.235Z,50.60
2023-02-01T06:48:44.814Z,48.80
2023-02-01T06:51:27.449Z,50.40
2023-02-01T06:53:55.973Z,50.90
2023-02-01T06:56:24.453Z,49.30
2023-02-01T06:58:52.134Z,50.20
2023-02-01T07:01:20.128Z,47.90
2023-02-01T07:03:54.792Z,49.20
2023-02-01T07:06:22.784Z,49.00
2023-02-01T07:08:50.441Z,51.20
2023-02-01T07:11:19.424Z,51.10
2023-02-01T07:13:48.400Z,51.40
2023-02-01T07:16:17.755Z,46.50
2023-02-01T07:18:46.113Z,48.10
2023-02-01T07:21:14.609Z,47.10
2023-02-01T07:23:43.811Z,47.90
2023-02-01T07:26:16.030Z,49.10
2023-02-01T07:28:43.885Z,49.70
2023-02-01T07:31:20.613Z,51.70
2023-02-01T07:33:52.789Z,50.70
2023-02-01T07:36:21.104Z,51.60
2023-02-01T07:38:48.723Z,49.80
2023-02-01T07:41:16.244Z,48.60
2023-02-01T07:43:44.140Z,47.80
2023-02-01T07:46:12.018Z,47.60
2023-02-01T07:48:41.287Z,46.90
2023-02-01T07:51:14.366Z,47.70
2023-02-01T07:53:42.080Z,48.60
2023-02-01T07:56:14.394Z,47.70
2023-02-01T07:58:42.226Z,49.20
2023-02-01T08:01:23.139Z,48.50
2023-02-01T08:03:52.170Z,48.20
2023-02-01T08:06:21.001Z,48.10
2023-02-01T08:08:50.700Z,48.70
2023-02-01T08:11:19.150Z,49.00
2023-02-01T08:13:47.476Z,48.80
2023-02-01T08:16:16.316Z,48.60
2023-02-01T08:18:44.403Z,49.30
2023-02-01T08:21:19.508Z,49.60
2023-02-01T08:23:47.515Z,50.10
2023-02-01T08:26:16.671Z,49.40
2023-02-01T08:28:49.456Z,48.90
2023-02-01T08:31:18.321Z,52.60
2023-02-01T08:33:49.637Z,51.90
2023-02-01T08:36:17.617Z,50.40
2023-02-01T08:38:46.556Z,49.80
2023-02-01T08:41:17.483Z,47.70
2023-02-01T08:43:48.465Z,48.30
2023-02-01T08:46:16.881Z,47.80
2023-02-01T08:48:49.746Z,48.30
2023-02-01T08:51:19.710Z,49.90
2023-02-01T08:53:48.499Z,49.60
2023-02-01T08:56:21.256Z,50.00
2023-02-01T08:58:48.865Z,49.30
2023-02-01T09:01:18.179Z,49.20
2023-02-01T09:03:47.197Z,51.00
2023-02-01T09:06:16.123Z,51.90
2023-02-01T09:08:44.913Z,50.20
2023-02-01T09:11:17.426Z,49.30
2023-02-01T09:13:51.056Z,49.20
2023-02-01T09:16:19.908Z,49.50
2023-02-01T09:18:55.934Z,50.90
2023-02-01T09:21:30.364Z,48.80
2023-02-01T09:23:57.951Z,48.90
2023-02-01T09:26:32.024Z,47.80
2023-02-01T09:29:01.388Z,47.80
2023-02-01T09:31:29.156Z,48.00
2023-02-01T09:33:57.020Z,47.20
2023-02-01T09:36:26.253Z,49.20
2023-02-01T09:38:54.544Z,49.10
2023-02-01T09:41:25.655Z,48.80
2023-02-01T09:44:04.122Z,48.90
2023-02-01T09:46:34.097Z,48.50
2023-02-01T09:49:05.148Z,48.80
2023-02-01T09:51:35.122Z,48.80
2023-02-01T09:54:07.479Z,49.20
2023-02-01T09:56:43.156Z,47.80
2023-02-01T09:59:29.364Z,47.60
2023-02-01T10:01:58.195Z,48.40
2023-02-01T10:04:25.719Z,48.60
2023-02-01T10:07:05.290Z,48.80
2023-02-01T10:09:39.096Z,50.10
2023-02-01T10:12:07.779Z,50.00
2023-02-01T10:14:58.447Z,50.70
2023-02-01T10:17:30.165Z,50.00
2023-02-01T10:19:58.973Z,49.90
2023-02-01T10:22:59.983Z,49.70
2023-02-01T10:25:29.150Z,49.80
2023-02-01T10:27:57.755Z,49.90
2023-02-01T10:30:27.182Z,49.90
2023-02-01T10:33:00.929Z,50.00
2023-02-01T10:35:38.499Z,50.10
2023-02-01T10:38:09.916Z,50.10
2023-02-01T10:40:38.638Z,49.80
2023-02-01T10:43:06.627Z,49.70
2023-02-01T10:45:35.048Z,50.10
2023-02-01T10:48:04.666Z,50.30
2023-02-01T10:50:53.764Z,50.20
2023-02-01T10:53:40.913Z,50.30
2023-02-01T10:56:09.474Z,50.40
2023-02-01T10:58:38.595Z,50.60
2023-02-01T11:01:10.173Z,50.70
2023-02-01T11:03:54.517Z,50.80
2023-02-01T11:06:25.025Z,50.80
2023-02-01T11:08:54.247Z,51.10
2023-02-01T11:11:22.846Z,51.00
2023-02-01T11:14:01.142Z,51.20
2023-02-01T11:16:36.187Z,51.20
2023-02-01T11:19:04.316Z,51.00
2023-02-01T11:21:32.287Z,51.40
2023-02-01T11:24:06.607Z,51.50
2023-02-01T11:26:35.103Z,51.50
2023-02-01T11:29:07.124Z,51.90
2023-02-01T11:31:35.548Z,51.90
2023-02-01T11:34:14.173Z,52.10
2023-02-01T11:36:42.600Z,52.30
2023-02-01T11:39:10.638Z,52.50
2023-02-01T11:41:58.209Z,52.80
2023-02-01T11:44:45.833Z,53.00
2023-02-01T11:47:25.540Z,53.30
2023-02-01T11:49:54.899Z,53.40
2023-02-01T11:52:30.906Z,53.50
2023-02-01T11:54:58.833Z,53.60
2023-02-01T11:57:41.916Z,53.70
2023-02-01T12:00:19.273Z,53.80
2023-02-01T12:02:56.902Z,53.90
2023-02-01T12:05:27.672Z,54.00
2023-02-01T12:08:13.480Z,54.10
2023-02-01T12:10:59.130Z,54.30
2023-02-01T12:13:39.856Z,54.30
2023-02-01T12:16:13.186Z,54.50
2023-02-01T12:18:44.091Z,54.60
2023-02-01T12:21:17.808Z,54.60
2023-02-01T12:23:50.373Z,54.70
2023-02-01T12:26:37.197Z,54.90
2023-02-01T12:29:08.556Z,55.10
2023-02-01T12:31:48.340Z,55.10
2023-02-01T12:34:16.005Z,55.20
2023-02-01T12:36:43.515Z,55.40
2023-02-01T12:39:23.010Z,55.60
2023-02-01T12:42:11.565Z,55.80
2023-02-01T12:44:39.117Z,56.00
2023-02-01T12:47:19.056Z,56.10
2023-02-01T12:49:49.341Z,56.20
2023-02-01T12:52:20.229Z,56.30
2023-02-01T12:55:09.646Z,56.60
2023-02-01T12:57:39.149Z,56.60
2023-02-01T13:00:06.873Z,56.70
2023-02-01T13:02:36.131Z,56.80
2023-02-01T13:05:20.861Z,57.10
2023-02-01T13:07:51.193Z,57.10
2023-02-01T13:10:22.793Z,57.10
2023-02-01T13:13:02.307Z,57.30
2023-02-01T13:15:32.091Z,57.40
2023-02-01T13:18:01.926Z,57.50
2023-02-01T13:20:38.767Z,57.80
2023-02-01T13:23:27.440Z,57.70
2023-02-01T13:25:55.465Z,57.90
2023-02-01T13:28:26.080Z,58.10
2023-02-01T13:31:03.029Z,58.20
2023-02-01T13:33:54.834Z,58.60
2023-02-01T13:36:29.308Z,58.80
2023-02-01T13:39:12.888Z,58.90
2023-02-01T13:41:45.021Z,59.10
2023-02-01T13:44:15.242Z,59.70
2023-02-01T13:46:43.936Z,59.60
2023-02-01T13:49:21.141Z,58.90
2023-02-01T13:51:50.792Z,59.50
2023-02-01T13:54:32.901Z,60.00
2023-02-01T13:57:01.466Z,59.40
2023-02-01T13:59:41.199Z,60.10
2023-02-01T14:02:26.801Z,59.90
2023-02-01T14:04:54.731Z,60.40
2023-02-01T14:07:23.601Z,60.80
2023-02-01T14:09:51.239Z,60.40
2023-02-01T14:12:38.264Z,61.90
2023-02-01T14:15:24.268Z,61.50
2023-02-01T14:17:52.512Z,61.80
2023-02-01T14:20:47.592Z,62.00
2023-02-01T14:23:22.577Z,61.90
2023-02-01T14:26:01.860Z,62.60
2023-02-01T14:28:30.596Z,63.10
2023-02-01T14:30:59.308Z,63.00
2023-02-01T14:33:28.532Z,63.10
2023-02-01T14:36:04.524Z,62.50
2023-02-01T14:38:34.331Z,63.60
2023-02-01T14:41:20.037Z,64.20
2023-02-01T14:43:52.215Z,64.60
2023-02-01T14:46:20.748Z,64.70
2023-02-01T14:48:49.095Z,65.10
2023-02-01T14:51:19.391Z,64.60
2023-02-01T14:53:48.078Z,64.40
2023-02-01T14:56:21.499Z,64.20
2023-02-01T14:58:49.962Z,65.70
2023-02-01T15:01:27.100Z,67.60
2023-02-01T15:04:01.100Z,67.70
2023-02-01T15:06:32.092Z,67.00
2023-02-01T15:09:04.775Z,66.60
2023-02-01T15:11:32.567Z,69.10
2023-02-01T15:14:02.939Z,71.20
2023-02-01T15:16:30.462Z,72.40
2023-02-01T15:19:18.114Z,71.80
2023-02-01T15:21:47.187Z,71.20
2023-02-01T15:24:28.274Z,71.10
2023-02-01T15:26:56.603Z,68.90
2023-02-01T15:29:29.270Z,68.70
2023-02-01T15:31:57.021Z,68.10
2023-02-01T15:34:24.633Z,69.60
2023-02-01T15:37:03.028Z,71.60
2023-02-01T15:39:32.925Z,72.40
2023-02-01T15:42:05.740Z,71.60
2023-02-01T15:44:33.345Z,72.50
2023-02-01T15:47:01.644Z,72.10
2023-02-01T15:49:29.449Z,72.80
2023-02-01T15:51:58.351Z,71.00
2023-02-01T15:55:04.470Z,72.50
2023-02-01T15:57:34.554Z,72.80
2023-02-01T16:00:04.697Z,72.00
2023-02-01T16:02:39.112Z,74.00
2023-02-01T16:05:26.287Z,75.40
2023-02-01T16:08:05.604Z,73.30
2023-02-01T16:10:40.053Z,74.90
2023-02-01T16:13:08.282Z,74.70
2023-02-01T16:15:35.815Z,72.00
2023-02-01T16:18:03.884Z,72.30
2023-02-01T16:20:32.397Z,71.50
2023-02-01T16:22:59.917Z,72.80
2023-02-01T16:25:27.503Z,74.10
2023-02-01T16:27:55.874Z,71.80
2023-02-01T16:30:26.399Z,72.20
2023-02-01T16:32:56.155Z,76.00
2023-02-01T16:35:26.866Z,76.20
2023-02-01T16:37:54.637Z,74.70
2023-02-01T16:40:25.612Z,74.40
2023-02-01T16:42:56.319Z,74.90
2023-02-01T16:45:25.034Z,73.50
2023-02-01T16:47:55.755Z,73.40
2023-02-01T16:50:24.668Z,73.50
2023-02-01T16:52:52.728Z,73.90
2023-02-01T16:55:23.100Z,72.70
2023-02-01T16:57:51.217Z,72.90
2023-02-01T17:00:25.303Z,73.50
2023-02-01T17:02:54.439Z,73.00
2023-02-01T17:05:22.641Z,75.50
2023-02-01T17:07:50.600Z,74.60
2023-02-01T17:10:34.526Z,75.20
2023-02-01T17:13:03.176Z,75.30
2023-02-01T17:15:35.114Z,76.50
2023-02-01T17:18:03.090Z,75.90
2023-02-01T17:20:33.233Z,75.20
2023-02-01T17:23:00.790Z,73.90
2023-02-01T17:25:29.119Z,76.50
2023-02-01T17:27:56.639Z,76.60
2023-02-01T17:30:25.096Z,77.50
2023-02-01T17:32:52.656Z,78.90
2023-02-01T17:35:25.234Z,77.50
2023-02-01T17:37:53.971Z,78.20
2023-02-01T17:40:21.478Z,77.40
2023-02-01T17:42:50.266Z,77.90
2023-02-01T17:45:21.913Z,78.10
2023-02-01T17:47:49.692Z,76.50
2023-02-01T17:50:18.201Z,76.40
2023-02-01T17:52:45.839Z,75.20
2023-02-01T17:55:22.874Z,74.80
2023-02-01T17:57:50.867Z,75.40
2023-02-01T18:00:18.790Z,76.50
2023-02-01T18:02:46.365Z,75.90
2023-02-01T18:05:20.008Z,76.60
2023-02-01T18:07:47.517Z,76.80
2023-02-01T18:10:15.092Z,75.40
2023-02-01T18:12:42.839Z,75.10
2023-02-01T18:15:22.143Z,77.00
2023-02-01T18:17:49.989Z,78.10
2023-02-01T18:20:18.560Z,75.70
2023-02-01T18:22:48.794Z,76.50
2023-02-01T18:25:17.975Z,75.40
2023-02-01T18:27:45.470Z,75.30
2023-02-01T18:30:13.465Z,76.80
2023-02-01T18:32:42.737Z,77.30
2023-02-01T18:35:20.924Z,77.50
2023-02-01T18:37:49.114Z,76.30
2023-02-01T18:40:18.594Z,76.90
2023-02-01T18:42:46.241Z,77.50
2023-02-01T18:45:34.737Z,77.80
2023-02-01T18:48:03.780Z,77.70
2023-02-01T18:50:33.150Z,76.50
2023-02-01T18:53:01.827Z,76.70
2023-02-01T18:55:31.451Z,77.00
2023-02-01T18:58:03.851Z,77.10
2023-02-01T19:00:31.371Z,77.00
2023-02-01T19:02:59.630Z,75.80
2023-02-01T19:05:27.752Z,76.40
2023-02-01T19:07:55.222Z,76.80
2023-02-01T19:10:23.610Z,76.10
2023-02-01T19:12:51.890Z,75.30
2023-02-01T19:15:19.681Z,77.60
2023-02-01T19:17:49.237Z,76.30
2023-02-01T19:20:18.270Z,77.20
2023-02-01T19:22:46.808Z,75.30
2023-02-01T19:25:15.458Z,75.70
2023-02-01T19:27:43.271Z,77.10
2023-02-01T19:30:12.744Z,78.90
2023-02-01T19:32:40.481Z,76.80
2023-02-01T19:35:09.617Z,76.90
2023-02-01T19:37:37.259Z,78.60
2023-02-01T19:40:04.943Z,77.90
2023-02-01T19:42:32.494Z,79.00
2023-02-01T19:45:00.107Z,79.50
2023-02-01T19:47:27.584Z,78.30
2023-02-01T19:49:56.210Z,78.90
2023-02-01T19:52:23.758Z,77.60
2023-02-01T19:54:51.268Z,78.60
2023-02-01T19:57:19.082Z,77.50
2023-02-01T19:59:46.599Z,77.10
2023-02-01T20:02:15.163Z,78.30
2023-02-01T20:04:42.738Z,81.20
2023-02-01T20:07:13.697Z,79.20
2023-02-01T20:09:44.509Z,78.40
2023-02-01T20:12:12.153Z,78.70
2023-02-01T20:14:40.193Z,79.00
2023-02-01T20:17:07.958Z,79.20
2023-02-01T20:19:35.487Z,78.80
2023-02-01T20:22:03.355Z,80.90
2023-02-01T20:24:30.810Z,79.50
2023-02-01T20:26:59.388Z,78.60
2023-02-01T20:29:27.908Z,77.30
2023-02-01T20:31:56.079Z,78.50
2023-02-01T20:34:23.615Z,78.30
2023-02-01T20:36:51.237Z,78.10
2023-02-01T20:39:19.659Z,78.20
2023-02-01T20:41:47.165Z,80.30
2023-02-01T20:44:16.490Z,80.40
2023-02-01T20:46:44.320Z,78.60
2023-02-01T20:49:12.835Z,78.60
2023-02-01T20:51:40.276Z,77.80
2023-02-01T20:54:08.165Z,77.90
2023-02-01T20:56:35.837Z,78.30
2023-02-01T20:59:03.458Z,77.70
2023-02-01T21:01:31.396Z,79.30
2023-02-01T21:03:59.001Z,78.40
2023-02-01T21:06:26.562Z,78.20
2023-02-01T21:08:54.225Z,78.90
2023-02-01T21:11:21.697Z,79.50
2023-02-01T21:13:51.859Z,78.80
2023-02-01T21:16:21.188Z,79.60
2023-02-01T21:18:52.365Z,79.70
2023-02-01T21:21:19.882Z,78.60
2023-02-01T21:23:48.933Z,79.00
2023-02-01T21:26:18.593Z,79.00
2023-02-01T21:28:47.450Z,78.60
2023-02-01T21:31:18.178Z,79.30
2023-02-01T21:33:48.735Z,79.80
2023-02-01T21:36:20.460Z,79.90
2023-02-01T21:38:52.468Z,80.00
2023-02-01T21:41:39.109Z,79.50
2023-02-01T21:44:07.734Z,79.10
2023-02-01T21:46:35.257Z,79.30
2023-02-01T21:49:05.489Z,79.00
2023-02-01T21:51:36.758Z,78.80
2023-02-01T21:54:05.128Z,79.10
2023-02-01T21:56:32.741Z,78.70
2023-02-01T21:59:00.294Z,78.10
2023-02-01T22:01:28.187Z,77.50
2023-02-01T22:03:55.770Z,77.70
2023-02-01T22:06:27.292Z,76.60
2023-02-01T22:08:55.015Z,76.90
2023-02-01T22:11:22.844Z,77.50
2023-02-01T22:13:50.447Z,78.10
2023-02-01T22:16:18.707Z,78.60
2023-02-01T22:18:47.094Z,78.80
2023-02-01T22:21:15.413Z,78.60
2023-02-01T22:23:43.007Z,78.30
2023-02-01T22:26:11.862Z,77.40
2023-02-01T22:28:40.532Z,77.60
2023-02-01T22:31:09.556Z,77.70
2023-02-01T22:33:37.237Z,77.30
2023-02-01T22:36:05.366Z,77.00
2023-02-01T22:38:33.635Z,77.60
2023-02-01T22:41:02.431Z,76.40
2023-02-01T22:43:30.261Z,78.30
2023-02-01T22:46:05.644Z,78.10
2023-02-01T22:48:38.629Z,78.10
2023-02-01T22:51:06.907Z,79.20
2023-02-01T22:53:34.615Z,79.80
2023-02-01T22:56:05.979Z,79.50
2023-02-01T22:58:36.194Z,80.00
2023-02-01T23:01:10.571Z,79.40
2023-02-01T23:03:38.546Z,79.80
2023-02-01T23:06:07.226Z,79.20
2023-02-01T23:08:35.653Z,79.80
2023-02-01T23:11:04.928Z,80.60
2023-02-01T23:13:33.139Z,81.10
2023-02-01T23:16:04.560Z,81.90
2023-02-01T23:18:32.162Z,81.90
2023-02-01T23:21:10.506Z,81.50
2023-02-01T23:23:38.064Z,81.30
2023-02-01T23:26:05.940Z,81.80
2023-02-01T23:28:33.591Z,83.10
2023-02-01T23:31:06.297Z,83.60
2023-02-01T23:33:33.891Z,81.10
2023-02-01T23:36:02.683Z,80.10
2023-02-01T23:38:30.524Z,79.70
2023-02-01T23:41:02.282Z,79.40
2023-02-01T23:43:48.233Z,80.50
2023-02-01T23:46:16.377Z,82.10
2023-02-01T23:48:44.344Z,82.70
2023-02-01T23:51:13.232Z,83.30
2023-02-01T23:53:41.516Z,83.10
2023-02-01T23:56:09.802Z,82.10
2023-02-01T23:58:38.091Z,81.00
